sensor_id;sensor_type;location;lat;lon;timestamp;temperature;humidity
11122;DHT22;5615;49.304;10.576;2023-02-11T00:01:38;-4.60;99.90
11122;DHT22;5615;49.304;10.576;2023-02-11T00:04:05;-4.70;99.90
11122;DHT22;5615;49.304;10.576;2023-02-11T00:06:34;-4.70;99.90
11122;DHT22;5615;49.304;10.576;2023-02-11T00:09:01;-4.60;99.90
11122;DHT22;5615;49.304;10.576;2023-02-11T00:11:29;-4.60;99.90
11122;DHT22;5615;49.304;10.576;2023-02-11T00:13:58;-4.60;99.90
11122;DHT22;5615;49.304;10.576;2023-02-11T00:16:25;-4.60;99.90
11122;DHT22;5615;49.304;10.576;2023-02-11T00:18:52;-4.70;99.90
11122;DHT22;5615;49.304;10.576;2023-02-11T00:21:20;-4.70;99.90
11122;DHT22;5615;49.304;10.576;2023-02-11T00:23:47;-4.70;99.90
11122;DHT22;5615;49.304;10.576;2023-02-11T00:26:15;-4.70;99.90
11122;DHT22;5615;49.304;10.576;2023-02-11T00:28:43;-4.70;99.90
11122;DHT22;5615;49.304;10.576;2023-02-11T00:31:11;-4.80;99.90
11122;DHT22;5615;49.304;10.576;2023-02-11T00:33:38;-4.70;99.90
11122;DHT22;5615;49.304;10.576;2023-02-11T00:36:07;-4.70;99.90
11122;DHT22;5615;49.304;10.576;2023-02-11T00:38:34;-4.60;99.90
11122;DHT22;5615;49.304;10.576;2023-02-11T00:41:00;-4.70;99.90
11122;DHT22;5615;49.304;10.576;2023-02-11T00:43:27;-4.70;99.90
11122;DHT22;5615;49.304;10.576;2023-02-11T00:45:54;-4.70;99.90
11122;DHT22;5615;49.304;10.576;2023-02-11T00:48:22;-4.70;99.90
11122;DHT22;5615;49.304;10.576;2023-02-11T00:50:48;-4.80;99.90
11122;DHT22;5615;49.304;10.576;2023-02-11T00:53:15;-4.60;99.90
11122;DHT22;5615;49.304;10.576;2023-02-11T00:55:41;-4.40;99.90
11122;DHT22;5615;49.304;10.576;2023-02-11T00:58:08;-4.30;99.90
11122;DHT22;5615;49.304;10.576;2023-02-11T01:00:34;-4.20;99.90
11122;DHT22;5615;49.304;10.576;2023-02-11T01:03:01;-4.00;99.90
11122;DHT22;5615;49.304;10.576;2023-02-11T01:05:29;-3.90;99.90
11122;DHT22;5615;49.304;10.576;2023-02-11T01:07:56;-3.70;99.90
11122;DHT22;5615;49.304;10.576;2023-02-11T01:10:23;-3.70;99.90
11122;DHT22;5615;49.304;10.576;2023-02-11T01:12:49;-3.70;99.90
11122;DHT22;5615;49.304;10.576;2023-02-11T01:15:18;-3.80;99.90
11122;DHT22;5615;49.304;10.576;2023-02-11T01:17:45;-3.70;99.90
11122;DHT22;5615;49.304;10.576;2023-02-11T01:20:15;-3.70;99.90
11122;DHT22;5615;49.304;10.576;2023-02-11T01:22:43;-3.90;99.90
11122;DHT22;5615;49.304;10.576;2023-02-11T01:25:10;-3.90;99.90
11122;DHT22;5615;49.304;10.576;2023-02-11T01:27:37;-4.00;99.90
11122;DHT22;5615;49.304;10.576;2023-02-11T01:30:05;-3.90;99.90
11122;DHT22;5615;49.304;10.576;2023-02-11T01:32:32;-3.90;99.90
11122;DHT22;5615;49.304;10.576;2023-02-11T01:34:59;-3.90;99.90
11122;DHT22;5615;49.304;10.576;2023-02-11T01:37:26;-3.90;99.90
11122;DHT22;5615;49.304;10.576;2023-02-11T01:39:54;-3.80;99.90
11122;DHT22;5615;49.304;10.576;2023-02-11T01:42:22;-3.80;99.90
11122;DHT22;5615;49.304;10.576;2023-02-11T01:44:49;-3.70;99.90
11122;DHT22;5615;49.304;10.576;2023-02-11T01:47:16;-3.60;99.90
11122;DHT22;5615;49.304;10.576;2023-02-11T01:49:46;-3.50;99.90
11122;DHT22;5615;49.304;10.576;2023-02-11T01:52:17;-3.50;99.90
11122;DHT22;5615;49.304;10.576;2023-02-11T01:54:49;-3.40;99.90
11122;DHT22;5615;49.304;10.576;2023-02-11T01:57:39;-3.30;99.90
11122;DHT22;5615;49.304;10.576;2023-02-11T02:00:10;-3.20;99.90
11122;DHT22;5615;49.304;10.576;2023-02-11T02:02:43;-3.20;99.90
11122;DHT22;5615;49.304;10.576;2023-02-11T02:05:18;-3.00;99.90
11122;DHT22;5615;49.304;10.576;2023-02-11T02:07:55;-3.00;99.90
11122;DHT22;5615;49.304;10.576;2023-02-11T02:10:26;-3.00;99.90
11122;DHT22;5615;49.304;10.576;2023-02-11T02:12:55;-3.00;99.90
11122;DHT22;5615;49.304;10.576;2023-02-11T02:15:25;-2.90;99.90
11122;DHT22;5615;49.304;10.576;2023-02-11T02:18:13;-2.80;99.90
11122;DHT22;5615;49.304;10.576;2023-02-11T02:21:12;-2.80;99.90
11122;DHT22;5615;49.304;10.576;2023-02-11T02:23:54;-3.00;99.90
11122;DHT22;5615;49.304;10.576;2023-02-11T02:26:50;-3.00;99.90
11122;DHT22;5615;49.304;10.576;2023-02-11T02:32:44;-3.00;99.90
11122;DHT22;5615;49.304;10.576;2023-02-11T02:35:23;-3.10;99.90
11122;DHT22;5615;49.304;10.576;2023-02-11T02:37:56;-3.00;99.90
11122;DHT22;5615;49.304;10.576;2023-02-11T02:40:29;-3.00;99.90
11122;DHT22;5615;49.304;10.576;2023-02-11T02:42:57;-3.00;99.90
11122;DHT22;5615;49.304;10.576;2023-02-11T02:45:26;-3.00;99.90
11122;DHT22;5615;49.304;10.576;2023-02-11T02:47:54;-3.00;99.90
11122;DHT22;5615;49.304;10.576;2023-02-11T02:50:26;-3.00;99.90
11122;DHT22;5615;49.304;10.576;2023-02-11T02:53:03;-3.00;99.90
11122;DHT22;5615;49.304;10.576;2023-02-11T02:55:41;-3.10;99.90
11122;DHT22;5615;49.304;10.576;2023-02-11T02:58:45;-3.10;99.90
11122;DHT22;5615;49.304;10.576;2023-02-11T03:01:23;-2.90;99.90
11122;DHT22;5615;49.304;10.576;2023-02-11T03:03:59;-2.80;99.90
11122;DHT22;5615;49.304;10.576;2023-02-11T03:06:30;-2.80;99.90
11122;DHT22;5615;49.304;10.576;2023-02-11T03:09:02;-2.70;99.90
11122;DHT22;5615;49.304;10.576;2023-02-11T03:11:31;-2.60;99.90
11122;DHT22;5615;49.304;10.576;2023-02-11T03:14:00;-2.50;99.90
11122;DHT22;5615;49.304;10.576;2023-02-11T03:16:29;-2.40;99.90
11122;DHT22;5615;49.304;10.576;2023-02-11T03:19:05;-2.40;99.90
11122;DHT22;5615;49.304;10.576;2023-02-11T03:21:36;-2.20;99.90
11122;DHT22;5615;49.304;10.576;2023-02-11T03:24:07;-2.20;99.90
11122;DHT22;5615;49.304;10.576;2023-02-11T03:26:37;-1.90;99.90
11122;DHT22;5615;49.304;10.576;2023-02-11T03:29:09;-1.80;99.90
11122;DHT22;5615;49.304;10.576;2023-02-11T03:31:45;-1.80;99.90
11122;DHT22;5615;49.304;10.576;2023-02-11T03:34:17;-1.60;99.90
11122;DHT22;5615;49.304;10.576;2023-02-11T03:36:50;-1.70;99.90
11122;DHT22;5615;49.304;10.576;2023-02-11T03:39:20;-1.60;99.90
11122;DHT22;5615;49.304;10.576;2023-02-11T03:41:49;-1.40;99.90
11122;DHT22;5615;49.304;10.576;2023-02-11T03:44:17;-1.30;99.90
11122;DHT22;5615;49.304;10.576;2023-02-11T03:46:48;-1.20;99.90
11122;DHT22;5615;49.304;10.576;2023-02-11T03:49:20;-1.10;99.90
11122;DHT22;5615;49.304;10.576;2023-02-11T03:51:49;-1.20;99.90
11122;DHT22;5615;49.304;10.576;2023-02-11T03:54:22;-1.10;99.90
11122;DHT22;5615;49.304;10.576;2023-02-11T03:56:52;-1.00;99.90
11122;DHT22;5615;49.304;10.576;2023-02-11T03:59:19;-1.00;99.90
11122;DHT22;5615;49.304;10.576;2023-02-11T04:01:46;-1.00;99.90
11122;DHT22;5615;49.304;10.576;2023-02-11T04:04:13;-0.90;99.90
11122;DHT22;5615;49.304;10.576;2023-02-11T04:06:41;-0.90;99.90
11122;DHT22;5615;49.304;10.576;2023-02-11T04:09:08;-0.90;99.90
11122;DHT22;5615;49.304;10.576;2023-02-11T04:11:34;-0.90;99.90
11122;DHT22;5615;49.304;10.576;2023-02-11T04:14:01;-0.80;99.90
11122;DHT22;5615;49.304;10.576;2023-02-11T04:16:28;-0.80;99.90
11122;DHT22;5615;49.304;10.576;2023-02-11T04:18:55;-0.70;99.90
11122;DHT22;5615;49.304;10.576;2023-02-11T04:21:22;-0.70;99.90
11122;DHT22;5615;49.304;10.576;2023-02-11T04:23:49;-0.70;99.90
11122;DHT22;5615;49.304;10.576;2023-02-11T04:26:16;-0.70;99.90
11122;DHT22;5615;49.304;10.576;2023-02-11T04:28:43;-0.80;99.90
11122;DHT22;5615;49.304;10.576;2023-02-11T04:31:09;-0.70;99.90
11122;DHT22;5615;49.304;10.576;2023-02-11T04:33:37;-0.70;99.90
11122;DHT22;5615;49.304;10.576;2023-02-11T04:36:04;-0.70;99.90
11122;DHT22;5615;49.304;10.576;2023-02-11T04:38:30;-0.60;99.90
11122;DHT22;5615;49.304;10.576;2023-02-11T04:40:58;-0.60;99.90
11122;DHT22;5615;49.304;10.576;2023-02-11T04:43:25;-0.50;99.90
11122;DHT22;5615;49.304;10.576;2023-02-11T04:45:55;-0.30;99.90
11122;DHT22;5615;49.304;10.576;2023-02-11T04:48:22;-0.20;99.90
11122;DHT22;5615;49.304;10.576;2023-02-11T04:50:49;-0.20;99.90
11122;DHT22;5615;49.304;10.576;2023-02-11T04:53:15;-0.10;99.90
11122;DHT22;5615;49.304;10.576;2023-02-11T04:55:42;0.00;99.90
11122;DHT22;5615;49.304;10.576;2023-02-11T04:58:10;0.10;99.90
11122;DHT22;5615;49.304;10.576;2023-02-11T05:00:36;0.10;99.90
11122;DHT22;5615;49.304;10.576;2023-02-11T05:03:03;0.00;99.90
11122;DHT22;5615;49.304;10.576;2023-02-11T05:05:29;0.00;99.90
11122;DHT22;5615;49.304;10.576;2023-02-11T05:07:56;-0.10;99.90
11122;DHT22;5615;49.304;10.576;2023-02-11T05:10:23;-0.10;99.90
11122;DHT22;5615;49.304;10.576;2023-02-11T05:12:49;-0.10;99.90
11122;DHT22;5615;49.304;10.576;2023-02-11T05:15:17;-0.10;99.90
11122;DHT22;5615;49.304;10.576;2023-02-11T05:17:44;-0.10;99.90
11122;DHT22;5615;49.304;10.576;2023-02-11T05:20:11;-0.10;99.90
11122;DHT22;5615;49.304;10.576;2023-02-11T05:22:37;-0.20;99.90
11122;DHT22;5615;49.304;10.576;2023-02-11T05:25:04;-0.20;99.90
11122;DHT22;5615;49.304;10.576;2023-02-11T05:27:31;-0.20;99.90
11122;DHT22;5615;49.304;10.576;2023-02-11T05:29:58;-0.20;99.90
11122;DHT22;5615;49.304;10.576;2023-02-11T05:32:26;-0.10;99.90
11122;DHT22;5615;49.304;10.576;2023-02-11T05:34:52;-0.10;99.90
11122;DHT22;5615;49.304;10.576;2023-02-11T05:37:19;-0.10;99.90
11122;DHT22;5615;49.304;10.576;2023-02-11T05:39:46;0.00;99.90
11122;DHT22;5615;49.304;10.576;2023-02-11T05:42:13;0.00;99.90
11122;DHT22;5615;49.304;10.576;2023-02-11T05:44:39;-0.10;99.90
11122;DHT22;5615;49.304;10.576;2023-02-11T05:47:06;0.00;99.90
11122;DHT22;5615;49.304;10.576;2023-02-11T05:49:35;-0.10;99.90
11122;DHT22;5615;49.304;10.576;2023-02-11T05:52:01;-0.10;99.90
11122;DHT22;5615;49.304;10.576;2023-02-11T05:54:28;0.00;99.90
11122;DHT22;5615;49.304;10.576;2023-02-11T05:56:54;0.00;99.90
11122;DHT22;5615;49.304;10.576;2023-02-11T05:59:21;0.00;99.90
11122;DHT22;5615;49.304;10.576;2023-02-11T06:01:47;0.00;99.90
11122;DHT22;5615;49.304;10.576;2023-02-11T06:04:14;0.10;99.90
11122;DHT22;5615;49.304;10.576;2023-02-11T06:06:42;0.10;99.90
11122;DHT22;5615;49.304;10.576;2023-02-11T06:09:09;0.10;99.90
11122;DHT22;5615;49.304;10.576;2023-02-11T06:11:36;0.20;99.90
11122;DHT22;5615;49.304;10.576;2023-02-11T06:14:03;0.20;99.90
11122;DHT22;5615;49.304;10.576;2023-02-11T06:16:29;0.20;99.90
11122;DHT22;5615;49.304;10.576;2023-02-11T06:18:56;0.20;99.90
11122;DHT22;5615;49.304;10.576;2023-02-11T06:21:22;0.20;99.90
11122;DHT22;5615;49.304;10.576;2023-02-11T06:23:50;0.30;99.90
11122;DHT22;5615;49.304;10.576;2023-02-11T06:26:18;0.30;99.90
11122;DHT22;5615;49.304;10.576;2023-02-11T06:28:46;0.30;99.90
11122;DHT22;5615;49.304;10.576;2023-02-11T06:31:13;0.30;99.90
11122;DHT22;5615;49.304;10.576;2023-02-11T06:33:40;0.30;99.90
11122;DHT22;5615;49.304;10.576;2023-02-11T06:36:12;0.20;99.90
11122;DHT22;5615;49.304;10.576;2023-02-11T06:38:38;0.20;99.90
11122;DHT22;5615;49.304;10.576;2023-02-11T06:41:08;0.20;99.90
11122;DHT22;5615;49.304;10.576;2023-02-11T06:43:35;0.30;99.90
11122;DHT22;5615;49.304;10.576;2023-02-11T06:46:01;0.20;99.90
11122;DHT22;5615;49.304;10.576;2023-02-11T06:48:28;0.20;99.90
11122;DHT22;5615;49.304;10.576;2023-02-11T06:50:54;0.20;99.90
11122;DHT22;5615;49.304;10.576;2023-02-11T06:53:21;0.20;99.90
11122;DHT22;5615;49.304;10.576;2023-02-11T06:55:47;0.20;99.90
11122;DHT22;5615;49.304;10.576;2023-02-11T06:58:16;0.30;99.90
11122;DHT22;5615;49.304;10.576;2023-02-11T07:00:42;0.40;99.90
11122;DHT22;5615;49.304;10.576;2023-02-11T07:03:09;0.40;99.90
11122;DHT22;5615;49.304;10.576;2023-02-11T07:05:35;0.50;99.90
11122;DHT22;5615;49.304;10.576;2023-02-11T07:08:03;0.50;99.90
11122;DHT22;5615;49.304;10.576;2023-02-11T07:10:30;0.60;99.90
11122;DHT22;5615;49.304;10.576;2023-02-11T07:12:56;0.60;99.90
11122;DHT22;5615;49.304;10.576;2023-02-11T07:15:24;0.70;99.90
11122;DHT22;5615;49.304;10.576;2023-02-11T07:17:51;0.70;99.90
11122;DHT22;5615;49.304;10.576;2023-02-11T07:20:17;0.90;99.90
11122;DHT22;5615;49.304;10.576;2023-02-11T07:22:44;1.00;99.90
11122;DHT22;5615;49.304;10.576;2023-02-11T07:25:11;1.00;99.90
11122;DHT22;5615;49.304;10.576;2023-02-11T07:27:37;1.10;99.90
11122;DHT22;5615;49.304;10.576;2023-02-11T07:30:04;1.10;99.90
11122;DHT22;5615;49.304;10.576;2023-02-11T07:32:32;1.10;99.90
11122;DHT22;5615;49.304;10.576;2023-02-11T07:34:59;1.10;99.90
11122;DHT22;5615;49.304;10.576;2023-02-11T07:37:26;1.10;99.90
11122;DHT22;5615;49.304;10.576;2023-02-11T07:39:52;1.20;99.90
11122;DHT22;5615;49.304;10.576;2023-02-11T07:42:19;1.20;99.90
11122;DHT22;5615;49.304;10.576;2023-02-11T07:44:45;1.30;99.90
11122;DHT22;5615;49.304;10.576;2023-02-11T07:47:12;1.50;99.90
11122;DHT22;5615;49.304;10.576;2023-02-11T07:49:40;1.70;99.90
11122;DHT22;5615;49.304;10.576;2023-02-11T07:52:06;1.90;99.90
11122;DHT22;5615;49.304;10.576;2023-02-11T07:54:33;2.00;99.90
11122;DHT22;5615;49.304;10.576;2023-02-11T07:57:00;2.10;99.90
11122;DHT22;5615;49.304;10.576;2023-02-11T07:59:26;2.10;99.90
11122;DHT22;5615;49.304;10.576;2023-02-11T08:01:53;2.20;99.90
11122;DHT22;5615;49.304;10.576;2023-02-11T08:04:19;2.20;99.90
11122;DHT22;5615;49.304;10.576;2023-02-11T08:06:47;2.20;99.90
11122;DHT22;5615;49.304;10.576;2023-02-11T08:09:17;2.20;99.90
11122;DHT22;5615;49.304;10.576;2023-02-11T08:11:44;2.30;99.90
11122;DHT22;5615;49.304;10.576;2023-02-11T08:14:11;2.30;99.90
11122;DHT22;5615;49.304;10.576;2023-02-11T08:16:38;2.40;99.90
11122;DHT22;5615;49.304;10.576;2023-02-11T08:19:06;2.40;99.90
11122;DHT22;5615;49.304;10.576;2023-02-11T08:21:33;2.50;99.90
11122;DHT22;5615;49.304;10.576;2023-02-11T08:24:01;2.40;99.90
11122;DHT22;5615;49.304;10.576;2023-02-11T08:26:30;2.50;99.90
11122;DHT22;5615;49.304;10.576;2023-02-11T08:28:59;2.60;99.90
11122;DHT22;5615;49.304;10.576;2023-02-11T08:31:27;2.70;99.90
11122;DHT22;5615;49.304;10.576;2023-02-11T08:33:55;2.80;99.90
11122;DHT22;5615;49.304;10.576;2023-02-11T08:36:24;2.90;99.90
11122;DHT22;5615;49.304;10.576;2023-02-11T08:38:53;3.00;99.90
11122;DHT22;5615;49.304;10.576;2023-02-11T08:41:21;3.00;99.90
11122;DHT22;5615;49.304;10.576;2023-02-11T08:43:48;3.00;99.90
11122;DHT22;5615;49.304;10.576;2023-02-11T08:46:16;3.00;99.90
11122;DHT22;5615;49.304;10.576;2023-02-11T08:48:43;2.90;99.90
11122;DHT22;5615;49.304;10.576;2023-02-11T08:51:14;3.10;99.90
11122;DHT22;5615;49.304;10.576;2023-02-11T08:53:41;3.20;99.90
11122;DHT22;5615;49.304;10.576;2023-02-11T08:56:09;3.20;99.90
11122;DHT22;5615;49.304;10.576;2023-02-11T08:58:38;3.50;99.90
11122;DHT22;5615;49.304;10.576;2023-02-11T09:01:08;3.60;99.90
11122;DHT22;5615;49.304;10.576;2023-02-11T09:03:35;3.80;99.90
11122;DHT22;5615;49.304;10.576;2023-02-11T09:06:04;3.90;99.90
11122;DHT22;5615;49.304;10.576;2023-02-11T09:08:33;3.80;99.90
11122;DHT22;5615;49.304;10.576;2023-02-11T09:10:59;4.10;99.90
11122;DHT22;5615;49.304;10.576;2023-02-11T09:13:26;4.20;99.90
11122;DHT22;5615;49.304;10.576;2023-02-11T09:15:54;4.00;99.90
11122;DHT22;5615;49.304;10.576;2023-02-11T09:18:21;4.00;99.90
11122;DHT22;5615;49.304;10.576;2023-02-11T09:20:48;3.90;99.90
11122;DHT22;5615;49.304;10.576;2023-02-11T09:23:14;3.80;99.90
11122;DHT22;5615;49.304;10.576;2023-02-11T09:25:41;4.10;99.90
11122;DHT22;5615;49.304;10.576;2023-02-11T09:28:08;4.40;99.90
11122;DHT22;5615;49.304;10.576;2023-02-11T09:30:36;4.70;99.90
11122;DHT22;5615;49.304;10.576;2023-02-11T09:33:04;4.80;99.90
11122;DHT22;5615;49.304;10.576;2023-02-11T09:35:32;4.80;99.90
11122;DHT22;5615;49.304;10.576;2023-02-11T09:37:58;4.80;99.90
11122;DHT22;5615;49.304;10.576;2023-02-11T09:40:25;4.50;99.90
11122;DHT22;5615;49.304;10.576;2023-02-11T09:42:56;4.50;99.90
11122;DHT22;5615;49.304;10.576;2023-02-11T09:45:27;4.60;99.90
11122;DHT22;5615;49.304;10.576;2023-02-11T09:47:55;4.50;99.90
11122;DHT22;5615;49.304;10.576;2023-02-11T09:50:28;4.50;99.90
11122;DHT22;5615;49.304;10.576;2023-02-11T09:52:58;4.40;99.90
11122;DHT22;5615;49.304;10.576;2023-02-11T09:55:28;4.50;99.90
11122;DHT22;5615;49.304;10.576;2023-02-11T09:57:55;4.60;99.90
11122;DHT22;5615;49.304;10.576;2023-02-11T10:00:24;4.70;99.90
11122;DHT22;5615;49.304;10.576;2023-02-11T10:03:07;5.00;99.90
11122;DHT22;5615;49.304;10.576;2023-02-11T10:05:48;4.90;99.90
11122;DHT22;5615;49.304;10.576;2023-02-11T10:08:21;4.80;99.90
11122;DHT22;5615;49.304;10.576;2023-02-11T10:10:56;5.10;99.90
11122;DHT22;5615;49.304;10.576;2023-02-11T10:13:43;5.40;99.90
11122;DHT22;5615;49.304;10.576;2023-02-11T10:16:24;5.50;99.90
11122;DHT22;5615;49.304;10.576;2023-02-11T10:19:07;5.70;99.90
11122;DHT22;5615;49.304;10.576;2023-02-11T10:21:45;5.90;99.90
11122;DHT22;5615;49.304;10.576;2023-02-11T10:24:16;5.80;99.90
11122;DHT22;5615;49.304;10.576;2023-02-11T10:26:43;6.20;99.90
11122;DHT22;5615;49.304;10.576;2023-02-11T10:29:19;6.50;99.90
11122;DHT22;5615;49.304;10.576;2023-02-11T10:31:49;6.20;99.90
11122;DHT22;5615;49.304;10.576;2023-02-11T10:34:16;5.90;99.90
11122;DHT22;5615;49.304;10.576;2023-02-11T10:36:44;6.20;99.90
11122;DHT22;5615;49.304;10.576;2023-02-11T10:39:13;6.20;99.90
11122;DHT22;5615;49.304;10.576;2023-02-11T10:41:43;6.50;99.90
11122;DHT22;5615;49.304;10.576;2023-02-11T10:44:21;7.50;99.90
11122;DHT22;5615;49.304;10.576;2023-02-11T10:46:50;8.30;99.90
11122;DHT22;5615;49.304;10.576;2023-02-11T10:49:34;9.00;99.90
11122;DHT22;5615;49.304;10.576;2023-02-11T10:52:18;8.50;99.90
11122;DHT22;5615;49.304;10.576;2023-02-11T10:54:58;8.50;99.90
11122;DHT22;5615;49.304;10.576;2023-02-11T10:57:27;8.50;99.90
11122;DHT22;5615;49.304;10.576;2023-02-11T10:59:58;8.70;99.90
11122;DHT22;5615;49.304;10.576;2023-02-11T11:02:28;8.50;99.90
11122;DHT22;5615;49.304;10.576;2023-02-11T11:04:58;9.60;99.90
11122;DHT22;5615;49.304;10.576;2023-02-11T11:07:28;10.20;99.90
11122;DHT22;5615;49.304;10.576;2023-02-11T11:09:57;9.90;99.90
11122;DHT22;5615;49.304;10.576;2023-02-11T11:12:36;9.00;99.90
11122;DHT22;5615;49.304;10.576;2023-02-11T11:15:17;9.10;99.90
11122;DHT22;5615;49.304;10.576;2023-02-11T11:17:46;10.40;99.90
11122;DHT22;5615;49.304;10.576;2023-02-11T11:20:23;10.20;99.90
11122;DHT22;5615;49.304;10.576;2023-02-11T11:23:07;10.10;99.90
11122;DHT22;5615;49.304;10.576;2023-02-11T11:25:36;8.80;99.90
11122;DHT22;5615;49.304;10.576;2023-02-11T11:28:04;7.80;99.90
11122;DHT22;5615;49.304;10.576;2023-02-11T11:30:40;7.80;99.90
11122;DHT22;5615;49.304;10.576;2023-02-11T11:33:18;7.40;99.90
11122;DHT22;5615;49.304;10.576;2023-02-11T11:35:54;7.40;99.90
11122;DHT22;5615;49.304;10.576;2023-02-11T11:38:24;7.50;99.90
11122;DHT22;5615;49.304;10.576;2023-02-11T11:41:14;7.10;99.90
11122;DHT22;5615;49.304;10.576;2023-02-11T11:43:53;7.00;99.90
11122;DHT22;5615;49.304;10.576;2023-02-11T11:46:25;7.00;99.90
11122;DHT22;5615;49.304;10.576;2023-02-11T11:48:57;7.10;99.90
11122;DHT22;5615;49.304;10.576;2023-02-11T11:51:26;6.90;99.90
11122;DHT22;5615;49.304;10.576;2023-02-11T11:53:59;7.10;99.90
11122;DHT22;5615;49.304;10.576;2023-02-11T11:56:28;7.30;99.90
11122;DHT22;5615;49.304;10.576;2023-02-11T11:58:55;7.10;99.90
11122;DHT22;5615;49.304;10.576;2023-02-11T12:01:33;6.80;99.90
11122;DHT22;5615;49.304;10.576;2023-02-11T12:04:22;6.60;99.90
11122;DHT22;5615;49.304;10.576;2023-02-11T12:07:01;6.70;99.90
11122;DHT22;5615;49.304;10.576;2023-02-11T12:09:43;6.50;99.90
11122;DHT22;5615;49.304;10.576;2023-02-11T12:12:31;6.40;99.90
11122;DHT22;5615;49.304;10.576;2023-02-11T12:15:14;6.60;99.90
11122;DHT22;5615;49.304;10.576;2023-02-11T12:17:55;6.50;99.90
11122;DHT22;5615;49.304;10.576;2023-02-11T12:20:31;6.60;99.90
11122;DHT22;5615;49.304;10.576;2023-02-11T12:23:20;6.50;99.90
11122;DHT22;5615;49.304;10.576;2023-02-11T12:25:56;6.60;99.90
11122;DHT22;5615;49.304;10.576;2023-02-11T12:28:33;6.90;99.90
11122;DHT22;5615;49.304;10.576;2023-02-11T12:31:17;6.70;99.90
11122;DHT22;5615;49.304;10.576;2023-02-11T12:34:04;6.90;99.90
11122;DHT22;5615;49.304;10.576;2023-02-11T12:36:44;7.10;99.90
11122;DHT22;5615;49.304;10.576;2023-02-11T12:39:28;7.20;99.90
11122;DHT22;5615;49.304;10.576;2023-02-11T12:42:19;6.50;99.90
11122;DHT22;5615;49.304;10.576;2023-02-11T12:45:14;6.20;99.90
11122;DHT22;5615;49.304;10.576;2023-02-11T12:47:53;6.20;99.90
11122;DHT22;5615;49.304;10.576;2023-02-11T12:50:29;6.10;99.90
11122;DHT22;5615;49.304;10.576;2023-02-11T12:53:15;6.00;99.90
11122;DHT22;5615;49.304;10.576;2023-02-11T12:55:49;5.80;99.90
11122;DHT22;5615;49.304;10.576;2023-02-11T12:58:20;5.90;99.90
11122;DHT22;5615;49.304;10.576;2023-02-11T13:00:51;5.80;99.90
11122;DHT22;5615;49.304;10.576;2023-02-11T13:03:22;5.90;99.90
11122;DHT22;5615;49.304;10.576;2023-02-11T13:05:52;5.80;99.90
11122;DHT22;5615;49.304;10.576;2023-02-11T13:08:24;5.80;99.90
11122;DHT22;5615;49.304;10.576;2023-02-11T13:10:54;5.90;99.90
11122;DHT22;5615;49.304;10.576;2023-02-11T13:13:26;6.00;99.90
11122;DHT22;5615;49.304;10.576;2023-02-11T13:15:58;6.00;99.90
11122;DHT22;5615;49.304;10.576;2023-02-11T13:18:46;5.70;99.90
11122;DHT22;5615;49.304;10.576;2023-02-11T13:21:30;5.70;99.90
11122;DHT22;5615;49.304;10.576;2023-02-11T13:24:13;5.70;99.90
11122;DHT22;5615;49.304;10.576;2023-02-11T13:26:47;5.70;99.90
11122;DHT22;5615;49.304;10.576;2023-02-11T13:29:28;5.90;99.90
11122;DHT22;5615;49.304;10.576;2023-02-11T13:32:06;5.90;99.90
11122;DHT22;5615;49.304;10.576;2023-02-11T13:34:57;5.80;99.90
11122;DHT22;5615;49.304;10.576;2023-02-11T13:37:25;5.70;99.90
11122;DHT22;5615;49.304;10.576;2023-02-11T13:40:02;5.70;99.90
11122;DHT22;5615;49.304;10.576;2023-02-11T13:42:30;5.70;99.90
11122;DHT22;5615;49.304;10.576;2023-02-11T13:45:00;5.70;99.90
11122;DHT22;5615;49.304;10.576;2023-02-11T13:47:29;5.80;99.90
11122;DHT22;5615;49.304;10.576;2023-02-11T13:49:57;5.80;99.90
11122;DHT22;5615;49.304;10.576;2023-02-11T13:52:27;5.70;99.90
11122;DHT22;5615;49.304;10.576;2023-02-11T13:54:57;5.50;99.90
11122;DHT22;5615;49.304;10.576;2023-02-11T13:57:30;5.50;99.90
11122;DHT22;5615;49.304;10.576;2023-02-11T13:59:59;5.60;99.90
11122;DHT22;5615;49.304;10.576;2023-02-11T14:02:30;5.70;99.90
11122;DHT22;5615;49.304;10.576;2023-02-11T14:08:19;5.80;99.90
11122;DHT22;5615;49.304;10.576;2023-02-11T14:11:06;6.10;99.90
11122;DHT22;5615;49.304;10.576;2023-02-11T14:14:13;6.10;99.90
11122;DHT22;5615;49.304;10.576;2023-02-11T14:19:50;6.10;99.90
11122;DHT22;5615;49.304;10.576;2023-02-11T14:22:21;6.10;99.90
11122;DHT22;5615;49.304;10.576;2023-02-11T14:24:55;6.20;99.90
11122;DHT22;5615;49.304;10.576;2023-02-11T14:27:39;6.30;99.90
11122;DHT22;5615;49.304;10.576;2023-02-11T14:30:25;5.80;99.90
11122;DHT22;5615;49.304;10.576;2023-02-11T14:33:18;5.50;99.90
11122;DHT22;5615;49.304;10.576;2023-02-11T14:35:59;5.40;99.90
11122;DHT22;5615;49.304;10.576;2023-02-11T14:38:37;5.30;99.90
11122;DHT22;5615;49.304;10.576;2023-02-11T14:41:10;5.20;99.90
11122;DHT22;5615;49.304;10.576;2023-02-11T14:43:44;5.30;99.90
11122;DHT22;5615;49.304;10.576;2023-02-11T14:46:14;5.10;99.90
11122;DHT22;5615;49.304;10.576;2023-02-11T14:48:45;5.20;99.90
11122;DHT22;5615;49.304;10.576;2023-02-11T14:51:17;5.20;99.90
11122;DHT22;5615;49.304;10.576;2023-02-11T14:53:46;5.30;99.90
11122;DHT22;5615;49.304;10.576;2023-02-11T14:56:19;5.20;99.90
11122;DHT22;5615;49.304;10.576;2023-02-11T14:58:47;5.20;99.90
11122;DHT22;5615;49.304;10.576;2023-02-11T15:01:25;5.20;99.90
11122;DHT22;5615;49.304;10.576;2023-02-11T15:03:53;5.30;99.90
11122;DHT22;5615;49.304;10.576;2023-02-11T15:06:25;5.30;99.90
11122;DHT22;5615;49.304;10.576;2023-02-11T15:08:54;5.20;99.90
11122;DHT22;5615;49.304;10.576;2023-02-11T15:11:24;5.30;99.90
11122;DHT22;5615;49.304;10.576;2023-02-11T15:13:51;5.40;99.90
11122;DHT22;5615;49.304;10.576;2023-02-11T15:16:21;5.30;99.90
11122;DHT22;5615;49.304;10.576;2023-02-11T15:18:53;5.20;99.90
11122;DHT22;5615;49.304;10.576;2023-02-11T15:21:23;5.20;99.90
11122;DHT22;5615;49.304;10.576;2023-02-11T15:23:56;5.10;99.90
11122;DHT22;5615;49.304;10.576;2023-02-11T15:26:23;5.10;99.90
11122;DHT22;5615;49.304;10.576;2023-02-11T15:28:49;5.10;99.90
11122;DHT22;5615;49.304;10.576;2023-02-11T15:31:19;5.20;99.90
11122;DHT22;5615;49.304;10.576;2023-02-11T15:33:47;5.10;99.90
11122;DHT22;5615;49.304;10.576;2023-02-11T15:36:15;5.20;99.90
11122;DHT22;5615;49.304;10.576;2023-02-11T15:38:43;5.10;99.90
11122;DHT22;5615;49.304;10.576;2023-02-11T15:44:25;4.90;99.90
11122;DHT22;5615;49.304;10.576;2023-02-11T15:46:52;4.90;99.90
11122;DHT22;5615;49.304;10.576;2023-02-11T15:49:19;4.90;99.90
11122;DHT22;5615;49.304;10.576;2023-02-11T15:51:46;4.90;99.90
11122;DHT22;5615;49.304;10.576;2023-02-11T15:54:17;4.90;99.90
11122;DHT22;5615;49.304;10.576;2023-02-11T15:56:46;4.80;99.90
11122;DHT22;5615;49.304;10.576;2023-02-11T15:59:16;4.80;99.90
11122;DHT22;5615;49.304;10.576;2023-02-11T16:01:44;4.80;99.90
11122;DHT22;5615;49.304;10.576;2023-02-11T16:04:16;4.80;99.90
11122;DHT22;5615;49.304;10.576;2023-02-11T16:06:43;4.80;99.90
11122;DHT22;5615;49.304;10.576;2023-02-11T16:09:25;4.80;99.90
11122;DHT22;5615;49.304;10.576;2023-02-11T16:11:57;4.80;99.90
11122;DHT22;5615;49.304;10.576;2023-02-11T16:14:29;4.80;99.90
11122;DHT22;5615;49.304;10.576;2023-02-11T16:16:59;4.80;99.90